sensor_id;sensor_type;location;lat;lon;timestamp;temperature;humidity
67054;SHT31;53960;51.826;5.850;2022-12-18T00:02:20;-3.80;90.40
67054;SHT31;53960;51.826;5.850;2022-12-18T00:04:47;-3.81;90.88
67054;SHT31;53960;51.826;5.850;2022-12-18T00:07:12;-3.83;90.25
67054;SHT31;53960;51.826;5.850;2022-12-18T00:09:37;-3.88;90.35
67054;SHT31;53960;51.826;5.850;2022-12-18T00:12:03;-3.95;90.43
67054;SHT31;53960;51.826;5.850;2022-12-18T00:14:28;-3.97;90.71
67054;SHT31;53960;51.826;5.850;2022-12-18T00:16:53;-3.97;90.66
67054;SHT31;53960;51.826;5.850;2022-12-18T00:19:19;-3.98;90.75
67054;SHT31;53960;51.826;5.850;2022-12-18T00:21:44;-4.01;90.81
67054;SHT31;53960;51.826;5.850;2022-12-18T00:24:10;-4.00;90.57
67054;SHT31;53960;51.826;5.850;2022-12-18T00:26:37;-3.98;90.53
67054;SHT31;53960;51.826;5.850;2022-12-18T00:29:06;-4.00;90.49
67054;SHT31;53960;51.826;5.850;2022-12-18T00:31:32;-4.05;90.59
67054;SHT31;53960;51.826;5.850;2022-12-18T00:33:58;-4.07;90.58
67054;SHT31;53960;51.826;5.850;2022-12-18T00:36:29;-4.05;90.68
67054;SHT31;53960;51.826;5.850;2022-12-18T00:38:57;-4.09;90.90
67054;SHT31;53960;51.826;5.850;2022-12-18T00:41:22;-4.12;90.73
67054;SHT31;53960;51.826;5.850;2022-12-18T00:44:09;-4.04;91.33
67054;SHT31;53960;51.826;5.850;2022-12-18T00:46:35;-4.04;90.95
67054;SHT31;53960;51.826;5.850;2022-12-18T00:49:01;-4.02;90.80
67054;SHT31;53960;51.826;5.850;2022-12-18T00:51:27;-4.04;91.03
67054;SHT31;53960;51.826;5.850;2022-12-18T00:53:52;-4.15;90.87
67054;SHT31;53960;51.826;5.850;2022-12-18T00:56:21;-4.08;90.84
67054;SHT31;53960;51.826;5.850;2022-12-18T00:58:46;-4.05;91.10
67054;SHT31;53960;51.826;5.850;2022-12-18T01:01:12;-4.05;90.68
67054;SHT31;53960;51.826;5.850;2022-12-18T01:03:37;-4.05;90.33
67054;SHT31;53960;51.826;5.850;2022-12-18T01:06:06;-4.01;90.31
67054;SHT31;53960;51.826;5.850;2022-12-18T01:08:32;-4.05;90.33
67054;SHT31;53960;51.826;5.850;2022-12-18T01:10:58;-4.05;90.23
67054;SHT31;53960;51.826;5.850;2022-12-18T01:13:23;-4.08;90.63
67054;SHT31;53960;51.826;5.850;2022-12-18T01:15:50;-4.09;91.12
67054;SHT31;53960;51.826;5.850;2022-12-18T01:18:15;-4.11;91.21
67054;SHT31;53960;51.826;5.850;2022-12-18T01:20:40;-4.07;91.02
67054;SHT31;53960;51.826;5.850;2022-12-18T01:23:06;-4.09;91.02
67054;SHT31;53960;51.826;5.850;2022-12-18T01:25:33;-4.05;91.08
67054;SHT31;53960;51.826;5.850;2022-12-18T01:28:00;-4.04;90.76
67054;SHT31;53960;51.826;5.850;2022-12-18T01:30:26;-4.05;90.59
67054;SHT31;53960;51.826;5.850;2022-12-18T01:32:52;-4.09;90.99
67054;SHT31;53960;51.826;5.850;2022-12-18T01:35:17;-4.12;90.87
67054;SHT31;53960;51.826;5.850;2022-12-18T01:37:42;-4.17;90.86
67054;SHT31;53960;51.826;5.850;2022-12-18T01:40:08;-4.19;91.20
67054;SHT31;53960;51.826;5.850;2022-12-18T01:42:34;-4.22;91.07
67054;SHT31;53960;51.826;5.850;2022-12-18T01:45:00;-4.25;91.16
67054;SHT31;53960;51.826;5.850;2022-12-18T01:50:00;-4.17;90.85
67054;SHT31;53960;51.826;5.850;2022-12-18T01:52:29;-4.17;90.97
67054;SHT31;53960;51.826;5.850;2022-12-18T01:54:56;-4.15;90.72
67054;SHT31;53960;51.826;5.850;2022-12-18T01:57:23;-4.09;90.67
67054;SHT31;53960;51.826;5.850;2022-12-18T01:59:52;-4.09;90.59
67054;SHT31;53960;51.826;5.850;2022-12-18T02:02:18;-4.11;90.60
67054;SHT31;53960;51.826;5.850;2022-12-18T02:04:44;-4.15;90.49
67054;SHT31;53960;51.826;5.850;2022-12-18T02:10:08;-4.08;90.48
67054;SHT31;53960;51.826;5.850;2022-12-18T02:12:49;-4.04;90.19
67054;SHT31;53960;51.826;5.850;2022-12-18T02:15:41;-4.00;89.87
67054;SHT31;53960;51.826;5.850;2022-12-18T02:18:20;-4.04;90.06
67054;SHT31;53960;51.826;5.850;2022-12-18T02:20:55;-4.02;89.98
67054;SHT31;53960;51.826;5.850;2022-12-18T02:26:22;-4.08;89.91
67054;SHT31;53960;51.826;5.850;2022-12-18T02:28:56;-4.14;90.07
67054;SHT31;53960;51.826;5.850;2022-12-18T02:31:26;-4.11;90.02
67054;SHT31;53960;51.826;5.850;2022-12-18T02:33:59;-4.18;89.93
67054;SHT31;53960;51.826;5.850;2022-12-18T02:36:26;-4.04;90.00
67054;SHT31;53960;51.826;5.850;2022-12-18T02:38:53;-4.02;89.77
67054;SHT31;53960;51.826;5.850;2022-12-18T02:41:23;-3.98;89.52
67054;SHT31;53960;51.826;5.850;2022-12-18T02:43:55;-4.02;89.61
67054;SHT31;53960;51.826;5.850;2022-12-18T02:46:33;-4.18;89.72
67054;SHT31;53960;51.826;5.850;2022-12-18T02:52:17;-4.18;89.81
67054;SHT31;53960;51.826;5.850;2022-12-18T02:54:57;-4.17;89.79
67054;SHT31;53960;51.826;5.850;2022-12-18T02:57:34;-4.04;89.72
67054;SHT31;53960;51.826;5.850;2022-12-18T03:00:09;-4.09;89.40
67054;SHT31;53960;51.826;5.850;2022-12-18T03:06:07;-4.22;89.84
67054;SHT31;53960;51.826;5.850;2022-12-18T03:08:27;-4.18;89.69
67054;SHT31;53960;51.826;5.850;2022-12-18T03:11:06;-4.21;89.57
67054;SHT31;53960;51.826;5.850;2022-12-18T03:13:36;-4.15;89.41
67054;SHT31;53960;51.826;5.850;2022-12-18T03:16:05;-4.17;89.32
67054;SHT31;53960;51.826;5.850;2022-12-18T03:18:36;-4.24;89.44
67054;SHT31;53960;51.826;5.850;2022-12-18T03:21:04;-4.21;89.58
67054;SHT31;53960;51.826;5.850;2022-12-18T03:23:35;-4.19;89.60
67054;SHT31;53960;51.826;5.850;2022-12-18T03:26:07;-4.19;89.27
67054;SHT31;53960;51.826;5.850;2022-12-18T03:28:38;-4.15;89.20
67054;SHT31;53960;51.826;5.850;2022-12-18T03:31:06;-4.18;89.15
67054;SHT31;53960;51.826;5.850;2022-12-18T03:33:51;-4.25;89.28
67054;SHT31;53960;51.826;5.850;2022-12-18T03:36:17;-4.19;89.20
67054;SHT31;53960;51.826;5.850;2022-12-18T03:38:42;-4.21;89.11
67054;SHT31;53960;51.826;5.850;2022-12-18T03:43:58;-4.25;89.10
67054;SHT31;53960;51.826;5.850;2022-12-18T03:49:11;-4.22;88.98
67054;SHT31;53960;51.826;5.850;2022-12-18T03:52:02;-4.22;89.15
67054;SHT31;53960;51.826;5.850;2022-12-18T03:54:29;-4.18;88.70
67054;SHT31;53960;51.826;5.850;2022-12-18T03:57:03;-4.15;88.70
67054;SHT31;53960;51.826;5.850;2022-12-18T03:59:30;-4.18;88.48
67054;SHT31;53960;51.826;5.850;2022-12-18T04:01:57;-4.11;88.26
67054;SHT31;53960;51.826;5.850;2022-12-18T04:04:24;-4.15;88.38
67054;SHT31;53960;51.826;5.850;2022-12-18T04:06:51;-4.08;88.34
67054;SHT31;53960;51.826;5.850;2022-12-18T04:09:18;-4.15;88.43
67054;SHT31;53960;51.826;5.850;2022-12-18T04:11:43;-4.09;88.45
67054;SHT31;53960;51.826;5.850;2022-12-18T04:14:11;-4.09;88.49
67054;SHT31;53960;51.826;5.850;2022-12-18T04:16:37;-4.15;88.43
67054;SHT31;53960;51.826;5.850;2022-12-18T04:19:03;-4.09;88.41
67054;SHT31;53960;51.826;5.850;2022-12-18T04:21:28;-4.01;88.16
67054;SHT31;53960;51.826;5.850;2022-12-18T04:23:53;-3.95;88.13
67054;SHT31;53960;51.826;5.850;2022-12-18T04:26:19;-4.02;88.18
67054;SHT31;53960;51.826;5.850;2022-12-18T04:28:44;-4.01;88.11
67054;SHT31;53960;51.826;5.850;2022-12-18T04:31:09;-4.02;88.04
67054;SHT31;53960;51.826;5.850;2022-12-18T04:33:35;-3.93;87.77
67054;SHT31;53960;51.826;5.850;2022-12-18T04:36:00;-3.94;87.73
67054;SHT31;53960;51.826;5.850;2022-12-18T04:38:26;-3.98;87.78
67054;SHT31;53960;51.826;5.850;2022-12-18T04:40:51;-3.95;87.87
67054;SHT31;53960;51.826;5.850;2022-12-18T04:43:16;-3.94;87.87
67054;SHT31;53960;51.826;5.850;2022-12-18T04:45:42;-3.86;87.59
67054;SHT31;53960;51.826;5.850;2022-12-18T04:48:07;-3.86;87.76
67054;SHT31;53960;51.826;5.850;2022-12-18T04:50:32;-3.88;87.60
67054;SHT31;53960;51.826;5.850;2022-12-18T04:52:58;-3.91;87.76
67054;SHT31;53960;51.826;5.850;2022-12-18T04:55:26;-3.86;87.87
67054;SHT31;53960;51.826;5.850;2022-12-18T04:57:52;-3.86;87.89
67054;SHT31;53960;51.826;5.850;2022-12-18T05:00:18;-3.87;87.99
67054;SHT31;53960;51.826;5.850;2022-12-18T05:02:43;-3.88;87.87
67054;SHT31;53960;51.826;5.850;2022-12-18T05:05:09;-3.83;87.91
67054;SHT31;53960;51.826;5.850;2022-12-18T05:07:34;-3.88;87.80
67054;SHT31;53960;51.826;5.850;2022-12-18T05:09:59;-3.94;87.84
67054;SHT31;53960;51.826;5.850;2022-12-18T05:12:25;-3.84;87.76
67054;SHT31;53960;51.826;5.850;2022-12-18T05:14:50;-3.83;87.68
67054;SHT31;53960;51.826;5.850;2022-12-18T05:17:16;-3.88;87.55
67054;SHT31;53960;51.826;5.850;2022-12-18T05:19:41;-3.83;87.86
67054;SHT31;53960;51.826;5.850;2022-12-18T05:22:07;-3.90;87.93
67054;SHT31;53960;51.826;5.850;2022-12-18T05:24:32;-3.93;87.98
67054;SHT31;53960;51.826;5.850;2022-12-18T05:26:58;-3.94;88.05
67054;SHT31;53960;51.826;5.850;2022-12-18T05:29:23;-3.97;88.32
67054;SHT31;53960;51.826;5.850;2022-12-18T05:31:48;-4.01;88.36
67054;SHT31;53960;51.826;5.850;2022-12-18T05:34:14;-4.02;88.64
67054;SHT31;53960;51.826;5.850;2022-12-18T05:36:39;-4.04;88.83
67054;SHT31;53960;51.826;5.850;2022-12-18T05:39:04;-4.01;88.44
67054;SHT31;53960;51.826;5.850;2022-12-18T05:41:30;-4.05;88.51
67054;SHT31;53960;51.826;5.850;2022-12-18T05:43:55;-4.05;88.77
67054;SHT31;53960;51.826;5.850;2022-12-18T05:46:20;-4.05;88.59
67054;SHT31;53960;51.826;5.850;2022-12-18T05:48:46;-4.07;88.79
67054;SHT31;53960;51.826;5.850;2022-12-18T05:51:16;-4.04;89.04
67054;SHT31;53960;51.826;5.850;2022-12-18T05:53:42;-3.94;88.75
67054;SHT31;53960;51.826;5.850;2022-12-18T05:56:11;-3.94;88.51
67054;SHT31;53960;51.826;5.850;2022-12-18T05:58:36;-3.94;88.58
67054;SHT31;53960;51.826;5.850;2022-12-18T06:01:11;-3.90;88.73
67054;SHT31;53960;51.826;5.850;2022-12-18T06:03:36;-3.87;88.67
67054;SHT31;53960;51.826;5.850;2022-12-18T06:06:02;-3.83;88.27
67054;SHT31;53960;51.826;5.850;2022-12-18T06:08:28;-3.76;88.01
67054;SHT31;53960;51.826;5.850;2022-12-18T06:10:53;-3.71;87.96
67054;SHT31;53960;51.826;5.850;2022-12-18T06:13:19;-3.66;88.05
67054;SHT31;53960;51.826;5.850;2022-12-18T06:15:45;-3.56;87.71
67054;SHT31;53960;51.826;5.850;2022-12-18T06:18:10;-3.50;87.40
67054;SHT31;53960;51.826;5.850;2022-12-18T06:20:35;-3.53;87.11
67054;SHT31;53960;51.826;5.850;2022-12-18T06:23:02;-3.52;87.23
67054;SHT31;53960;51.826;5.850;2022-12-18T06:25:27;-3.45;86.94
67054;SHT31;53960;51.826;5.850;2022-12-18T06:27:53;-3.39;86.76
67054;SHT31;53960;51.826;5.850;2022-12-18T06:30:19;-3.27;86.57
67054;SHT31;53960;51.826;5.850;2022-12-18T06:32:44;-3.23;86.24
67054;SHT31;53960;51.826;5.850;2022-12-18T06:35:10;-3.25;86.65
67054;SHT31;53960;51.826;5.850;2022-12-18T06:37:35;-3.34;86.72
67054;SHT31;53960;51.826;5.850;2022-12-18T06:40:01;-3.35;86.80
67054;SHT31;53960;51.826;5.850;2022-12-18T06:42:26;-3.36;86.68
67054;SHT31;53960;51.826;5.850;2022-12-18T06:44:52;-3.34;86.53
67054;SHT31;53960;51.826;5.850;2022-12-18T06:47:18;-3.35;86.69
67054;SHT31;53960;51.826;5.850;2022-12-18T06:49:43;-3.35;86.72
67054;SHT31;53960;51.826;5.850;2022-12-18T06:52:08;-3.35;86.42
67054;SHT31;53960;51.826;5.850;2022-12-18T06:54:34;-3.34;86.47
67054;SHT31;53960;51.826;5.850;2022-12-18T06:56:59;-3.36;86.63
67054;SHT31;53960;51.826;5.850;2022-12-18T06:59:24;-3.31;86.63
67054;SHT31;53960;51.826;5.850;2022-12-18T07:01:50;-3.27;86.57
67054;SHT31;53960;51.826;5.850;2022-12-18T07:04:15;-3.23;86.16
67054;SHT31;53960;51.826;5.850;2022-12-18T07:06:41;-3.23;86.19
67054;SHT31;53960;51.826;5.850;2022-12-18T07:09:06;-3.25;86.37
67054;SHT31;53960;51.826;5.850;2022-12-18T07:11:34;-3.34;86.51
67054;SHT31;53960;51.826;5.850;2022-12-18T07:14:00;-3.29;86.38
67054;SHT31;53960;51.826;5.850;2022-12-18T07:16:25;-3.27;86.47
67054;SHT31;53960;51.826;5.850;2022-12-18T07:18:51;-3.29;86.55
67054;SHT31;53960;51.826;5.850;2022-12-18T07:21:18;-3.32;86.40
67054;SHT31;53960;51.826;5.850;2022-12-18T07:23:44;-3.32;86.39
67054;SHT31;53960;51.826;5.850;2022-12-18T07:26:14;-3.35;86.84
67054;SHT31;53960;51.826;5.850;2022-12-18T07:28:41;-3.28;86.57
67054;SHT31;53960;51.826;5.850;2022-12-18T07:31:09;-3.32;86.30
67054;SHT31;53960;51.826;5.850;2022-12-18T07:33:35;-3.32;86.18
67054;SHT31;53960;51.826;5.850;2022-12-18T07:36:01;-3.25;86.18
67054;SHT31;53960;51.826;5.850;2022-12-18T07:38:28;-3.32;86.54
67054;SHT31;53960;51.826;5.850;2022-12-18T07:40:53;-3.23;86.45
67054;SHT31;53960;51.826;5.850;2022-12-18T07:43:19;-3.19;86.21
67054;SHT31;53960;51.826;5.850;2022-12-18T07:45:44;-3.15;86.00
67054;SHT31;53960;51.826;5.850;2022-12-18T07:48:09;-3.11;85.89
67054;SHT31;53960;51.826;5.850;2022-12-18T07:50:35;-3.11;85.86
67054;SHT31;53960;51.826;5.850;2022-12-18T07:53:00;-3.15;86.02
67054;SHT31;53960;51.826;5.850;2022-12-18T07:55:29;-3.05;85.92
67054;SHT31;53960;51.826;5.850;2022-12-18T07:57:54;-3.08;85.81
67054;SHT31;53960;51.826;5.850;2022-12-18T08:00:20;-3.11;85.94
67054;SHT31;53960;51.826;5.850;2022-12-18T08:02:45;-3.09;86.04
67054;SHT31;53960;51.826;5.850;2022-12-18T08:05:11;-2.94;85.39
67054;SHT31;53960;51.826;5.850;2022-12-18T08:07:36;-2.88;85.38
67054;SHT31;53960;51.826;5.850;2022-12-18T08:10:01;-2.89;85.33
67054;SHT31;53960;51.826;5.850;2022-12-18T08:12:27;-2.87;85.22
67054;SHT31;53960;51.826;5.850;2022-12-18T08:14:52;-2.87;85.50
67054;SHT31;53960;51.826;5.850;2022-12-18T08:17:19;-2.76;85.09
67054;SHT31;53960;51.826;5.850;2022-12-18T08:19:44;-2.71;85.09
67054;SHT31;53960;51.826;5.850;2022-12-18T08:22:10;-2.66;84.95
67054;SHT31;53960;51.826;5.850;2022-12-18T08:24:35;-2.64;84.49
67054;SHT31;53960;51.826;5.850;2022-12-18T08:27:00;-2.57;84.62
67054;SHT31;53960;51.826;5.850;2022-12-18T08:29:26;-2.63;84.85
67054;SHT31;53960;51.826;5.850;2022-12-18T08:31:51;-2.59;84.68
67054;SHT31;53960;51.826;5.850;2022-12-18T08:34:16;-2.45;84.02
67054;SHT31;53960;51.826;5.850;2022-12-18T08:36:41;-2.35;83.84
67054;SHT31;53960;51.826;5.850;2022-12-18T08:39:07;-2.28;83.55
67054;SHT31;53960;51.826;5.850;2022-12-18T08:41:32;-2.29;83.94
67054;SHT31;53960;51.826;5.850;2022-12-18T08:43:58;-2.30;83.86
67054;SHT31;53960;51.826;5.850;2022-12-18T08:46:42;-2.25;83.77
67054;SHT31;53960;51.826;5.850;2022-12-18T08:49:09;-2.23;83.39
67054;SHT31;53960;51.826;5.850;2022-12-18T08:51:35;-2.21;83.12
67054;SHT31;53960;51.826;5.850;2022-12-18T08:54:01;-2.19;83.20
67054;SHT31;53960;51.826;5.850;2022-12-18T08:56:27;-2.16;83.15
67054;SHT31;53960;51.826;5.850;2022-12-18T08:58:53;-2.08;82.87
67054;SHT31;53960;51.826;5.850;2022-12-18T09:01:19;-2.05;82.58
67054;SHT31;53960;51.826;5.850;2022-12-18T09:03:48;-2.03;82.52
67054;SHT31;53960;51.826;5.850;2022-12-18T09:06:15;-1.98;82.31
67054;SHT31;53960;51.826;5.850;2022-12-18T09:08:42;-1.95;82.16
67054;SHT31;53960;51.826;5.850;2022-12-18T09:11:22;-1.92;82.46
67054;SHT31;53960;51.826;5.850;2022-12-18T09:13:48;-1.92;82.35
67054;SHT31;53960;51.826;5.850;2022-12-18T09:16:14;-1.79;82.30
67054;SHT31;53960;51.826;5.850;2022-12-18T09:18:39;-1.78;82.07
67054;SHT31;53960;51.826;5.850;2022-12-18T09:21:18;-1.74;81.83
67054;SHT31;53960;51.826;5.850;2022-12-18T09:23:43;-1.71;81.68
67054;SHT31;53960;51.826;5.850;2022-12-18T09:26:09;-1.72;81.88
67054;SHT31;53960;51.826;5.850;2022-12-18T09:28:34;-1.72;81.64
67054;SHT31;53960;51.826;5.850;2022-12-18T09:31:04;-1.67;81.83
67054;SHT31;53960;51.826;5.850;2022-12-18T09:33:30;-1.60;81.47
67054;SHT31;53960;51.826;5.850;2022-12-18T09:35:55;-1.58;81.42
67054;SHT31;53960;51.826;5.850;2022-12-18T09:38:20;-1.54;81.01
67054;SHT31;53960;51.826;5.850;2022-12-18T09:40:51;-1.50;81.31
67054;SHT31;53960;51.826;5.850;2022-12-18T09:43:20;-1.50;81.51
67054;SHT31;53960;51.826;5.850;2022-12-18T09:45:51;-1.46;81.24
67054;SHT31;53960;51.826;5.850;2022-12-18T09:48:38;-1.47;81.93
67054;SHT31;53960;51.826;5.850;2022-12-18T09:51:29;-1.40;81.05
67054;SHT31;53960;51.826;5.850;2022-12-18T09:54:00;-1.27;80.63
67054;SHT31;53960;51.826;5.850;2022-12-18T09:56:28;-1.27;81.06
67054;SHT31;53960;51.826;5.850;2022-12-18T09:59:00;-1.27;80.52
67054;SHT31;53960;51.826;5.850;2022-12-18T10:01:28;-1.21;80.94
67054;SHT31;53960;51.826;5.850;2022-12-18T10:03:54;-1.17;80.57
67054;SHT31;53960;51.826;5.850;2022-12-18T10:09:14;-1.08;80.03
67054;SHT31;53960;51.826;5.850;2022-12-18T10:12:23;-1.05;79.87
67054;SHT31;53960;51.826;5.850;2022-12-18T10:14:56;-1.03;79.54
67054;SHT31;53960;51.826;5.850;2022-12-18T10:17:44;-0.92;79.54
67054;SHT31;53960;51.826;5.850;2022-12-18T10:20:21;-0.96;79.36
67054;SHT31;53960;51.826;5.850;2022-12-18T10:23:04;-0.92;79.88
67054;SHT31;53960;51.826;5.850;2022-12-18T10:26:03;-0.92;80.16
67054;SHT31;53960;51.826;5.850;2022-12-18T10:28:30;-0.87;79.51
67054;SHT31;53960;51.826;5.850;2022-12-18T10:30:56;-0.81;79.34
67054;SHT31;53960;51.826;5.850;2022-12-18T10:33:23;-0.77;79.18
67054;SHT31;53960;51.826;5.850;2022-12-18T10:35:52;-0.75;79.05
67054;SHT31;53960;51.826;5.850;2022-12-18T10:41:05;-0.64;78.70
67054;SHT31;53960;51.826;5.850;2022-12-18T10:43:32;-0.57;78.39
67054;SHT31;53960;51.826;5.850;2022-12-18T10:48:54;-0.56;77.88
67054;SHT31;53960;51.826;5.850;2022-12-18T10:51:30;-0.53;78.15
67054;SHT31;53960;51.826;5.850;2022-12-18T10:53:59;-0.48;78.38
67054;SHT31;53960;51.826;5.850;2022-12-18T10:56:27;-0.48;78.63
67054;SHT31;53960;51.826;5.850;2022-12-18T10:59:05;-0.44;78.75
67054;SHT31;53960;51.826;5.850;2022-12-18T11:01:54;-0.40;78.60
67054;SHT31;53960;51.826;5.850;2022-12-18T11:04:29;-0.38;77.79
67054;SHT31;53960;51.826;5.850;2022-12-18T11:09:23;-0.27;77.71
67054;SHT31;53960;51.826;5.850;2022-12-18T11:11:53;-0.27;77.38
67054;SHT31;53960;51.826;5.850;2022-12-18T11:14:26;-0.23;77.30
67054;SHT31;53960;51.826;5.850;2022-12-18T11:16:52;-0.21;77.21
67054;SHT31;53960;51.826;5.850;2022-12-18T11:19:20;-0.16;77.11
67054;SHT31;53960;51.826;5.850;2022-12-18T11:21:47;-0.17;77.48
67054;SHT31;53960;51.826;5.850;2022-12-18T11:24:38;-0.16;77.05
67054;SHT31;53960;51.826;5.850;2022-12-18T11:27:05;-0.11;77.35
67054;SHT31;53960;51.826;5.850;2022-12-18T11:29:36;-0.07;77.23
67054;SHT31;53960;51.826;5.850;2022-12-18T11:34:42;-0.02;77.10
67054;SHT31;53960;51.826;5.850;2022-12-18T11:37:11;0.01;76.71
67054;SHT31;53960;51.826;5.850;2022-12-18T11:39:41;0.04;76.78
67054;SHT31;53960;51.826;5.850;2022-12-18T11:42:34;0.08;76.46
67054;SHT31;53960;51.826;5.850;2022-12-18T11:47:44;0.12;76.25
67054;SHT31;53960;51.826;5.850;2022-12-18T11:50:32;0.11;76.22
67054;SHT31;53960;51.826;5.850;2022-12-18T11:52:58;0.12;76.34
67054;SHT31;53960;51.826;5.850;2022-12-18T12:00:30;0.21;76.59
67054;SHT31;53960;51.826;5.850;2022-12-18T12:03:22;0.19;75.80
67054;SHT31;53960;51.826;5.850;2022-12-18T12:08:23;0.33;75.53
67054;SHT31;53960;51.826;5.850;2022-12-18T12:16:44;0.28;75.78
67054;SHT31;53960;51.826;5.850;2022-12-18T12:22:28;0.32;76.22
67054;SHT31;53960;51.826;5.850;2022-12-18T12:27:48;0.35;76.42
67054;SHT31;53960;51.826;5.850;2022-12-18T12:30:21;0.39;75.41
67054;SHT31;53960;51.826;5.850;2022-12-18T12:33:05;0.39;75.27
67054;SHT31;53960;51.826;5.850;2022-12-18T12:35:57;0.44;75.55
67054;SHT31;53960;51.826;5.850;2022-12-18T12:41:01;0.41;75.29
67054;SHT31;53960;51.826;5.850;2022-12-18T12:43:37;0.35;75.84
67054;SHT31;53960;51.826;5.850;2022-12-18T12:46:06;0.38;76.46
67054;SHT31;53960;51.826;5.850;2022-12-18T12:53:40;0.38;75.36
67054;SHT31;53960;51.826;5.850;2022-12-18T12:56:07;0.44;74.54
67054;SHT31;53960;51.826;5.850;2022-12-18T12:58:45;0.39;75.46
67054;SHT31;53960;51.826;5.850;2022-12-18T13:01:43;0.38;75.43
67054;SHT31;53960;51.826;5.850;2022-12-18T13:04:45;0.38;75.43
67054;SHT31;53960;51.826;5.850;2022-12-18T13:07:14;0.39;74.93
67054;SHT31;53960;51.826;5.850;2022-12-18T13:12:54;0.35;75.19
67054;SHT31;53960;51.826;5.850;2022-12-18T13:15:45;0.38;75.03
67054;SHT31;53960;51.826;5.850;2022-12-18T13:18:20;0.38;75.49
67054;SHT31;53960;51.826;5.850;2022-12-18T13:21:12;0.35;75.50
67054;SHT31;53960;51.826;5.850;2022-12-18T13:23:42;0.33;75.19
67054;SHT31;53960;51.826;5.850;2022-12-18T13:31:13;0.38;75.29
67054;SHT31;53960;51.826;5.850;2022-12-18T13:33:44;0.38;75.24
67054;SHT31;53960;51.826;5.850;2022-12-18T13:36:14;0.42;75.09
67054;SHT31;53960;51.826;5.850;2022-12-18T13:38:41;0.44;74.82
67054;SHT31;53960;51.826;5.850;2022-12-18T13:41:22;0.41;75.27
67054;SHT31;53960;51.826;5.850;2022-12-18T13:43:52;0.48;74.68
67054;SHT31;53960;51.826;5.850;2022-12-18T13:46:20;0.44;75.52
67054;SHT31;53960;51.826;5.850;2022-12-18T13:48:56;0.44;75.49
67054;SHT31;53960;51.826;5.850;2022-12-18T13:51:22;0.42;75.28
67054;SHT31;53960;51.826;5.850;2022-12-18T13:53:52;0.42;75.30
67054;SHT31;53960;51.826;5.850;2022-12-18T13:56:23;0.41;75.26
67054;SHT31;53960;51.826;5.850;2022-12-18T14:01:56;0.39;74.99
67054;SHT31;53960;51.826;5.850;2022-12-18T14:04:30;0.38;75.26
67054;SHT31;53960;51.826;5.850;2022-12-18T14:07:01;0.39;74.95
67054;SHT31;53960;51.826;5.850;2022-12-18T14:09:37;0.39;75.09
67054;SHT31;53960;51.826;5.850;2022-12-18T14:12:05;0.42;74.85
67054;SHT31;53960;51.826;5.850;2022-12-18T14:14:50;0.46;74.78
67054;SHT31;53960;51.826;5.850;2022-12-18T14:17:17;0.46;74.32
67054;SHT31;53960;51.826;5.850;2022-12-18T14:19:50;0.44;74.99
67054;SHT31;53960;51.826;5.850;2022-12-18T14:22:21;0.38;75.48
67054;SHT31;53960;51.826;5.850;2022-12-18T14:25:15;0.32;75.24
67054;SHT31;53960;51.826;5.850;2022-12-18T14:27:45;0.37;74.78
67054;SHT31;53960;51.826;5.850;2022-12-18T14:36:03;0.41;74.74
67054;SHT31;53960;51.826;5.850;2022-12-18T14:38:39;0.38;74.96
67054;SHT31;53960;51.826;5.850;2022-12-18T14:41:06;0.35;75.42
67054;SHT31;53960;51.826;5.850;2022-12-18T14:43:37;0.33;75.61
67054;SHT31;53960;51.826;5.850;2022-12-18T14:46:05;0.35;75.57
67054;SHT31;53960;51.826;5.850;2022-12-18T14:48:36;0.38;75.14
67054;SHT31;53960;51.826;5.850;2022-12-18T14:53:39;0.35;75.54
67054;SHT31;53960;51.826;5.850;2022-12-18T14:56:17;0.38;75.53
67054;SHT31;53960;51.826;5.850;2022-12-18T14:58:52;0.39;74.99
67054;SHT31;53960;51.826;5.850;2022-12-18T15:01:20;0.39;75.29
67054;SHT31;53960;51.826;5.850;2022-12-18T15:03:46;0.33;75.19
67054;SHT31;53960;51.826;5.850;2022-12-18T15:06:16;0.29;75.37
67054;SHT31;53960;51.826;5.850;2022-12-18T15:08:42;0.31;75.56
67054;SHT31;53960;51.826;5.850;2022-12-18T15:11:27;0.29;75.81
67054;SHT31;53960;51.826;5.850;2022-12-18T15:13:53;0.39;75.72
67054;SHT31;53960;51.826;5.850;2022-12-18T15:16:18;0.32;75.77
67054;SHT31;53960;51.826;5.850;2022-12-18T15:18:44;0.33;75.36
67054;SHT31;53960;51.826;5.850;2022-12-18T15:21:19;0.26;75.72
67054;SHT31;53960;51.826;5.850;2022-12-18T15:23:51;0.26;75.89
67054;SHT31;53960;51.826;5.850;2022-12-18T15:26:20;0.29;75.72
67054;SHT31;53960;51.826;5.850;2022-12-18T15:28:52;0.24;76.06
67054;SHT31;53960;51.826;5.850;2022-12-18T15:31:24;0.19;76.02
67054;SHT31;53960;51.826;5.850;2022-12-18T15:36:20;0.19;76.56
67054;SHT31;53960;51.826;5.850;2022-12-18T15:38:46;0.18;76.29
67054;SHT31;53960;51.826;5.850;2022-12-18T15:41:18;0.19;76.35
67054;SHT31;53960;51.826;5.850;2022-12-18T15:43:46;0.21;76.07
67054;SHT31;53960;51.826;5.850;2022-12-18T15:46:14;0.15;76.60
67054;SHT31;53960;51.826;5.850;2022-12-18T15:48:44;0.15;76.95
67054;SHT31;53960;51.826;5.850;2022-12-18T15:51:15;0.17;76.57
67054;SHT31;53960;51.826;5.850;2022-12-18T15:53:41;0.12;76.78
67054;SHT31;53960;51.826;5.850;2022-12-18T15:56:14;0.10;76.64
67054;SHT31;53960;51.826;5.850;2022-12-18T15:58:58;0.11;76.87
67054;SHT31;53960;51.826;5.850;2022-12-18T16:01:26;0.14;76.13
67054;SHT31;53960;51.826;5.850;2022-12-18T16:03:52;0.12;75.90
67054;SHT31;53960;51.826;5.850;2022-12-18T16:06:19;0.12;76.05
67054;SHT31;53960;51.826;5.850;2022-12-18T16:08:45;0.11;75.80
67054;SHT31;53960;51.826;5.850;2022-12-18T16:11:21;0.11;76.46
67054;SHT31;53960;51.826;5.850;2022-12-18T16:16:37;0.14;75.97
67054;SHT31;53960;51.826;5.850;2022-12-18T16:19:02;0.15;75.90
67054;SHT31;53960;51.826;5.850;2022-12-18T16:21:27;0.11;75.99
67054;SHT31;53960;51.826;5.850;2022-12-18T16:23:53;0.12;75.83
67054;SHT31;53960;51.826;5.850;2022-12-18T16:26:18;0.08;76.12
67054;SHT31;53960;51.826;5.850;2022-12-18T16:28:43;0.07;75.91
67054;SHT31;53960;51.826;5.850;2022-12-18T16:31:09;0.10;76.17
67054;SHT31;53960;51.826;5.850;2022-12-18T16:33:34;0.12;76.21
67054;SHT31;53960;51.826;5.850;2022-12-18T16:35:59;0.18;75.93
67054;SHT31;53960;51.826;5.850;2022-12-18T16:38:24;0.21;75.90
67054;SHT31;53960;51.826;5.850;2022-12-18T16:40:50;0.21;75.54
67054;SHT31;53960;51.826;5.850;2022-12-18T16:43:33;0.17;75.72
67054;SHT31;53960;51.826;5.850;2022-12-18T16:45:59;0.17;75.32
67054;SHT31;53960;51.826;5.850;2022-12-18T16:48:24;0.15;76.02
67054;SHT31;53960;51.826;5.850;2022-12-18T16:50:49;0.18;75.80
67054;SHT31;53960;51.826;5.850;2022-12-18T16:53:15;0.15;75.69
67054;SHT31;53960;51.826;5.850;2022-12-18T16:55:40;0.15;76.06
67054;SHT31;53960;51.826;5.850;2022-12-18T16:58:05;0.12;75.85
67054;SHT31;53960;51.826;5.850;2022-12-18T17:00:31;0.12;75.63
67054;SHT31;53960;51.826;5.850;2022-12-18T17:02:56;0.14;75.81
67054;SHT31;53960;51.826;5.850;2022-12-18T17:05:21;0.15;75.44
67054;SHT31;53960;51.826;5.850;2022-12-18T17:07:47;0.10;76.13
67054;SHT31;53960;51.826;5.850;2022-12-18T17:10:12;0.14;75.96
67054;SHT31;53960;51.826;5.850;2022-12-18T17:12:37;0.11;76.65
67054;SHT31;53960;51.826;5.850;2022-12-18T17:15:03;0.11;75.99
67054;SHT31;53960;51.826;5.850;2022-12-18T17:17:28;0.10;76.41